createdAt,value
2023-04-09T00:01:52.108Z,233.79
2023-04-09T00:04:25.118Z,232.38
2023-04-09T00:06:57.409Z,236.45
2023-04-09T00:09:29.657Z,235.31
2023-04-09T00:12:02.316Z,234.92
2023-04-09T00:14:34.594Z,228.21
2023-04-09T00:17:09.433Z,230.29
2023-04-09T00:19:41.775Z,223.07
2023-04-09T00:22:14.022Z,225.33
2023-04-09T00:24:46.368Z,224.84
2023-04-09T00:27:18.683Z,227.99
2023-04-09T00:29:50.969Z,229.10
2023-04-09T00:32:25.976Z,230.06
2023-04-09T00:34:58.183Z,232.14
2023-04-09T00:37:30.526Z,229.50
2023-04-09T00:40:02.766Z,229.06
2023-04-09T00:42:36.507Z,231.72
2023-04-09T00:45:09.856Z,228.39
2023-04-09T00:47:46.698Z,231.41
2023-04-09T00:50:20.240Z,229.07
2023-04-09T00:52:52.475Z,229.91
2023-04-09T00:55:26.365Z,228.32
2023-04-09T00:57:58.583Z,227.03
2023-04-09T01:00:31.040Z,226.86
2023-04-09T01:03:08.661Z,224.88
2023-04-09T01:05:52.824Z,228.63
2023-04-09T01:08:37.333Z,228.94
2023-04-09T01:11:19.908Z,229.90
2023-04-09T01:14:04.395Z,232.69
2023-04-09T01:16:41.048Z,235.90
2023-04-09T01:19:36.622Z,232.01
2023-04-09T01:22:18.089Z,231.01
2023-04-09T01:25:07.374Z,221.61
2023-04-09T01:27:51.071Z,233.11
2023-04-09T01:30:26.643Z,230.39
2023-04-09T01:33:02.619Z,232.80
2023-04-09T01:35:35.632Z,234.56
2023-04-09T01:38:09.856Z,227.17
2023-04-09T01:40:42.379Z,226.16
2023-04-09T01:43:17.374Z,227.38
2023-04-09T01:45:54.564Z,228.71
2023-04-09T01:48:28.330Z,227.65
2023-04-09T01:51:01.724Z,231.15
2023-04-09T01:53:33.990Z,231.54
2023-04-09T01:56:06.810Z,239.10
2023-04-09T01:58:40.818Z,233.54
2023-04-09T02:01:25.908Z,239.15
2023-04-09T02:04:04.733Z,237.16
2023-04-09T02:06:46.645Z,240.65
2023-04-09T02:09:24.307Z,240.29
2023-04-09T02:12:01.191Z,231.04
2023-04-09T02:14:37.273Z,238.23
2023-04-09T02:17:12.392Z,244.11
2023-04-09T02:19:45.554Z,242.81
2023-04-09T02:22:19.355Z,235.71
2023-04-09T02:24:51.940Z,240.32
2023-04-09T02:27:24.201Z,241.63
2023-04-09T02:29:56.402Z,242.06
2023-04-09T02:32:31.330Z,246.08
2023-04-09T02:35:03.739Z,243.09
2023-04-09T02:37:35.964Z,243.18
2023-04-09T02:40:08.663Z,244.56
2023-04-09T02:42:40.936Z,245.33
2023-04-09T02:45:14.295Z,241.46
2023-04-09T02:47:49.194Z,242.45
2023-04-09T02:50:21.708Z,245.46
2023-04-09T02:52:54.068Z,242.59
2023-04-09T02:55:26.611Z,244.05
2023-04-09T02:57:58.834Z,247.09
2023-04-09T03:00:31.141Z,251.04
2023-04-09T03:03:06.152Z,245.05
2023-04-09T03:05:39.156Z,242.67
2023-04-09T03:08:11.379Z,243.40
2023-04-09T03:10:43.572Z,239.72
2023-04-09T03:13:15.923Z,246.33
2023-04-09T03:15:48.139Z,240.21
2023-04-09T03:18:23.041Z,245.74
2023-04-09T03:20:55.301Z,239.73
2023-04-09T03:23:27.569Z,241.16
2023-04-09T03:26:05.823Z,239.18
2023-04-09T03:28:38.095Z,243.36
2023-04-09T03:31:10.375Z,239.32
2023-04-09T03:33:45.289Z,239.11
2023-04-09T03:36:17.518Z,235.68
2023-04-09T03:38:49.926Z,232.60
2023-04-09T03:41:22.322Z,236.31
2023-04-09T03:43:54.511Z,235.76
2023-04-09T03:46:26.832Z,237.30
2023-04-09T03:49:01.968Z,231.55
2023-04-09T03:51:34.663Z,237.59
2023-04-09T03:54:06.922Z,231.45
2023-04-09T03:56:39.094Z,234.26
2023-04-09T03:59:11.417Z,230.52
2023-04-09T04:01:43.749Z,232.11
2023-04-09T04:04:20.575Z,238.52
2023-04-09T04:06:55.158Z,229.24
2023-04-09T04:09:27.451Z,232.31
2023-04-09T04:11:59.720Z,228.76
2023-04-09T04:14:31.922Z,235.62
2023-04-09T04:17:04.127Z,231.41
2023-04-09T04:19:39.016Z,238.66
2023-04-09T04:22:11.244Z,233.45
2023-04-09T04:24:43.436Z,224.97
2023-04-09T04:27:16.050Z,235.44
2023-04-09T04:29:48.313Z,226.41
2023-04-09T04:32:20.631Z,229.06
2023-04-09T04:34:56.100Z,235.11
2023-04-09T04:37:28.472Z,232.57
2023-04-09T04:40:00.751Z,234.74
2023-04-09T04:42:33.041Z,232.44
2023-04-09T04:45:05.824Z,232.63
2023-04-09T04:47:38.018Z,227.22
2023-04-09T04:50:14.319Z,231.86
2023-04-09T04:52:46.540Z,231.43
2023-04-09T04:55:18.723Z,226.31
2023-04-09T04:57:50.998Z,232.89
2023-04-09T05:00:23.281Z,233.83
2023-04-09T05:02:55.556Z,231.84
2023-04-09T05:05:30.622Z,235.39
2023-04-09T05:08:02.872Z,231.22
2023-04-09T05:10:35.167Z,232.39
2023-04-09T05:13:07.392Z,232.98
2023-04-09T05:15:42.600Z,239.00
2023-04-09T05:18:14.806Z,237.89
2023-04-09T05:20:49.563Z,230.76
2023-04-09T05:23:21.812Z,234.34
2023-04-09T05:25:54.069Z,233.76
2023-04-09T05:28:26.292Z,235.13
2023-04-09T05:30:58.614Z,231.16
2023-04-09T05:33:33.844Z,234.59
2023-04-09T05:36:09.241Z,236.24
2023-04-09T05:38:41.554Z,235.43
2023-04-09T05:41:13.912Z,243.94
2023-04-09T05:43:46.172Z,242.79
2023-04-09T05:46:18.477Z,246.99
2023-04-09T05:48:51.065Z,249.08
2023-04-09T05:51:26.090Z,246.56
2023-04-09T05:53:58.327Z,256.60
2023-04-09T05:56:30.513Z,266.26
2023-04-09T05:59:02.733Z,271.83
2023-04-09T06:01:34.985Z,274.19
2023-04-09T06:04:07.405Z,278.20
2023-04-09T06:06:44.211Z,275.29
2023-04-09T06:09:16.358Z,275.57
2023-04-09T06:11:48.560Z,274.41
2023-04-09T06:14:20.825Z,283.09
2023-04-09T06:16:53.073Z,271.87
2023-04-09T06:19:25.809Z,262.99
2023-04-09T06:22:00.629Z,260.47
2023-04-09T06:24:35.448Z,260.11
2023-04-09T06:27:08.052Z,260.45
2023-04-09T06:29:40.291Z,266.63
2023-04-09T06:32:12.510Z,260.51
2023-04-09T06:34:44.692Z,258.07
2023-04-09T06:37:19.572Z,251.33
2023-04-09T06:40:00.337Z,245.05
2023-04-09T06:42:33.039Z,242.86
2023-04-09T06:45:08.563Z,246.09
2023-04-09T06:47:41.209Z,239.63
2023-04-09T06:50:13.901Z,248.16
2023-04-09T06:52:48.699Z,245.07
2023-04-09T06:55:20.997Z,241.18
2023-04-09T06:57:53.255Z,235.63
2023-04-09T07:00:26.396Z,224.19
2023-04-09T07:02:58.875Z,227.31
2023-04-09T07:05:31.467Z,225.11
2023-04-09T07:08:06.235Z,212.76
2023-04-09T07:10:38.530Z,221.59
2023-04-09T07:13:11.162Z,211.18
2023-04-09T07:15:43.464Z,216.41
2023-04-09T07:18:15.883Z,217.89
2023-04-09T07:20:48.095Z,215.09
2023-04-09T07:23:22.986Z,213.75
2023-04-09T07:25:55.340Z,214.25
2023-04-09T07:28:27.747Z,216.49
2023-04-09T07:31:01.533Z,216.27
2023-04-09T07:33:34.080Z,219.34
2023-04-09T07:36:07.020Z,214.97
2023-04-09T07:38:41.936Z,209.01
2023-04-09T07:41:15.675Z,204.74
2023-04-09T07:43:47.946Z,200.39
2023-04-09T07:46:23.768Z,201.99
2023-04-09T07:48:56.246Z,194.99
2023-04-09T07:51:28.959Z,204.99
2023-04-09T07:54:03.792Z,203.95
2023-04-09T07:56:36.125Z,207.17
2023-04-09T07:59:08.360Z,199.39
2023-04-09T08:01:40.685Z,212.62
2023-04-09T08:04:16.019Z,208.62
2023-04-09T08:06:51.016Z,207.45
2023-04-09T08:09:26.218Z,208.37
2023-04-09T08:11:58.566Z,203.83
2023-04-09T08:14:30.827Z,207.31
2023-04-09T08:17:03.922Z,207.31
2023-04-09T08:19:36.177Z,208.96
2023-04-09T08:22:08.434Z,210.82
2023-04-09T08:24:43.981Z,216.19
2023-04-09T08:27:16.301Z,217.19
2023-04-09T08:29:48.472Z,223.34
2023-04-09T08:32:20.984Z,226.37
2023-04-09T08:34:53.245Z,224.71
2023-04-09T08:37:25.678Z,222.46
2023-04-09T08:40:00.499Z,221.79
2023-04-09T08:42:35.715Z,231.93
2023-04-09T08:45:09.356Z,236.44
2023-04-09T08:47:44.238Z,235.35
2023-04-09T08:50:17.188Z,237.01
2023-04-09T08:52:52.834Z,232.69
2023-04-09T08:55:27.915Z,232.54
2023-04-09T08:58:01.246Z,242.08
2023-04-09T09:00:33.427Z,249.11
2023-04-09T09:03:07.345Z,238.77
2023-04-09T09:05:44.084Z,245.27
2023-04-09T09:08:18.373Z,247.30
2023-04-09T09:10:53.351Z,242.71
2023-04-09T09:13:28.002Z,249.93
2023-04-09T09:16:18.203Z,254.78
2023-04-09T09:18:51.625Z,267.64
2023-04-09T09:21:24.758Z,283.37
2023-04-09T09:23:57.094Z,291.08
2023-04-09T09:26:33.656Z,288.37
2023-04-09T09:29:08.565Z,276.99
2023-04-09T09:31:51.301Z,279.69
2023-04-09T09:34:25.617Z,282.76
2023-04-09T09:36:57.889Z,283.33
2023-04-09T09:39:47.415Z,280.96
2023-04-09T09:42:22.309Z,275.46
2023-04-09T09:44:55.636Z,278.50
2023-04-09T09:47:29.624Z,274.72
2023-04-09T09:50:01.843Z,263.72
2023-04-09T09:52:34.290Z,267.22
2023-04-09T09:55:11.702Z,260.17
2023-04-09T09:57:50.737Z,257.34
2023-04-09T10:00:25.711Z,256.30
2023-04-09T10:03:03.565Z,261.89
2023-04-09T10:05:36.887Z,257.82
2023-04-09T10:08:09.592Z,251.88
2023-04-09T10:10:45.172Z,244.71
2023-04-09T10:13:29.884Z,248.21
2023-04-09T10:16:02.735Z,251.56
2023-04-09T10:18:36.228Z,240.41
2023-04-09T10:21:16.450Z,236.47
2023-04-09T10:23:52.298Z,228.75
2023-04-09T10:26:27.626Z,230.31
2023-04-09T10:29:14.827Z,230.56
2023-04-09T10:32:07.835Z,225.49
2023-04-09T10:34:43.805Z,229.11
2023-04-09T10:37:20.198Z,237.30
2023-04-09T10:39:54.268Z,225.31
2023-04-09T10:42:29.216Z,229.29
2023-04-09T10:45:15.285Z,225.36
2023-04-09T10:47:48.614Z,226.77
2023-04-09T10:50:24.138Z,222.11
2023-04-09T10:53:00.409Z,222.61
2023-04-09T10:55:39.358Z,222.03
2023-04-09T10:58:13.964Z,221.13
2023-04-09T11:00:51.370Z,218.09
2023-04-09T11:03:30.700Z,216.26
2023-04-09T11:06:09.441Z,202.45
2023-04-09T11:08:43.471Z,193.56
2023-04-09T11:11:16.788Z,195.09
2023-04-09T11:13:49.058Z,183.63
2023-04-09T11:16:25.475Z,176.82
2023-04-09T11:18:58.991Z,181.21
2023-04-09T11:21:33.386Z,169.79
2023-04-09T11:24:06.332Z,162.69
2023-04-09T11:26:41.712Z,151.61
2023-04-09T11:29:14.006Z,152.19
2023-04-09T11:31:50.646Z,146.69
2023-04-09T11:34:22.889Z,144.98
2023-04-09T11:36:55.177Z,134.37
2023-04-09T11:39:27.410Z,134.60
2023-04-09T11:41:59.650Z,131.49
2023-04-09T11:44:31.881Z,125.14
2023-04-09T11:47:07.527Z,125.49
2023-04-09T11:49:40.077Z,128.43
2023-04-09T11:52:12.586Z,127.26
2023-04-09T11:54:44.786Z,126.53
2023-04-09T11:57:17.044Z,128.97
2023-04-09T11:59:49.665Z,130.26
2023-04-09T12:02:25.360Z,126.89
2023-04-09T12:04:57.755Z,133.40
2023-04-09T12:07:38.045Z,128.79
2023-04-09T12:10:14.043Z,132.88
2023-04-09T12:12:47.906Z,128.44
2023-04-09T12:15:25.788Z,129.86
2023-04-09T12:18:03.013Z,129.99
2023-04-09T12:20:39.724Z,131.92
2023-04-09T12:23:13.522Z,128.27
2023-04-09T12:25:48.263Z,129.80
2023-04-09T12:28:21.611Z,118.89
2023-04-09T12:30:55.580Z,117.04
2023-04-09T12:33:30.629Z,119.76
2023-04-09T12:36:02.939Z,119.76
2023-04-09T12:38:35.250Z,117.44
2023-04-09T12:41:07.575Z,114.69
2023-04-09T12:43:39.787Z,114.93
2023-04-09T12:46:12.073Z,120.44
2023-04-09T12:48:46.928Z,124.36
2023-04-09T12:51:19.617Z,120.91
2023-04-09T12:53:52.147Z,119.54
2023-04-09T12:56:25.002Z,121.14
2023-04-09T12:58:57.221Z,120.75
2023-04-09T13:01:29.512Z,120.24
2023-04-09T13:04:04.427Z,116.49
2023-04-09T13:06:36.808Z,117.35
2023-04-09T13:09:09.101Z,125.84
2023-04-09T13:11:41.400Z,126.13
2023-04-09T13:14:14.597Z,117.31
2023-04-09T13:16:46.819Z,117.09
2023-04-09T13:19:21.778Z,118.02
2023-04-09T13:21:53.998Z,126.68
2023-04-09T13:24:26.237Z,121.26
2023-04-09T13:26:58.521Z,119.54
2023-04-09T13:29:31.607Z,117.15
2023-04-09T13:32:07.335Z,120.76
2023-04-09T13:34:43.690Z,120.75
2023-04-09T13:37:15.997Z,118.37
2023-04-09T13:39:48.558Z,121.76
2023-04-09T13:42:20.844Z,117.77
2023-04-09T13:44:53.073Z,121.05
2023-04-09T13:47:25.292Z,119.77
2023-04-09T13:50:00.180Z,114.46
2023-04-09T13:52:32.929Z,115.79
2023-04-09T13:55:05.206Z,113.86
2023-04-09T13:57:37.486Z,115.66
2023-04-09T14:00:11.365Z,112.42
2023-04-09T14:02:44.033Z,113.28
2023-04-09T14:05:18.926Z,113.66
2023-04-09T14:07:51.187Z,113.07
2023-04-09T14:10:23.417Z,106.98
2023-04-09T14:12:56.493Z,113.82
2023-04-09T14:15:28.740Z,114.00
2023-04-09T14:18:01.182Z,111.83
2023-04-09T14:20:38.599Z,108.83
2023-04-09T14:23:10.803Z,100.53
2023-04-09T14:25:43.149Z,98.55
2023-04-09T14:28:15.454Z,108.79
2023-04-09T14:30:47.735Z,112.47
2023-04-09T14:33:19.911Z,112.04
2023-04-09T14:35:54.883Z,113.53
2023-04-09T14:38:27.238Z,113.05
2023-04-09T14:40:59.503Z,114.30
2023-04-09T14:43:31.756Z,111.15
2023-04-09T14:46:04.209Z,117.29
2023-04-09T14:48:36.462Z,118.30
2023-04-09T14:51:12.895Z,117.80
2023-04-09T14:53:45.306Z,117.94
2023-04-09T14:56:17.546Z,118.80
2023-04-09T14:58:49.773Z,119.36
2023-04-09T15:01:22.786Z,116.44
2023-04-09T15:03:55.455Z,108.68
2023-04-09T15:06:31.547Z,116.70
2023-04-09T15:09:03.865Z,110.61
2023-04-09T15:11:36.117Z,114.16
2023-04-09T15:14:08.408Z,108.14
2023-04-09T15:16:40.763Z,103.09
2023-04-09T15:19:13.028Z,104.91
2023-04-09T15:21:48.009Z,103.82
2023-04-09T15:24:20.715Z,111.17
2023-04-09T15:26:53.109Z,111.86
2023-04-09T15:29:25.532Z,112.19
2023-04-09T15:31:58.489Z,114.95
2023-04-09T15:34:30.862Z,112.44
2023-04-09T15:37:05.736Z,111.14
2023-04-09T15:39:38.019Z,117.46
2023-04-09T15:42:12.775Z,113.69
2023-04-09T15:44:46.919Z,112.59
2023-04-09T15:47:19.210Z,109.33
2023-04-09T15:49:51.620Z,111.56
2023-04-09T15:52:26.896Z,106.29
2023-04-09T15:54:59.356Z,106.27
2023-04-09T15:57:31.704Z,112.31
2023-04-09T16:00:04.003Z,108.17
2023-04-09T16:02:38.845Z,105.56
2023-04-09T16:05:12.258Z,108.26
2023-04-09T16:07:47.053Z,112.53
2023-04-09T16:10:19.330Z,110.86
2023-04-09T16:12:51.673Z,110.99
2023-04-09T16:15:23.891Z,115.13
2023-04-09T16:17:56.826Z,126.59
2023-04-09T16:20:29.468Z,108.86
2023-04-09T16:23:04.329Z,107.29
2023-04-09T16:25:36.612Z,107.73
2023-04-09T16:28:09.343Z,99.72
2023-04-09T16:30:41.566Z,100.36
2023-04-09T16:33:14.305Z,98.38
2023-04-09T16:35:46.754Z,100.98
2023-04-09T16:38:23.764Z,97.23
2023-04-09T16:40:56.203Z,110.50
2023-04-09T16:43:29.263Z,107.94
2023-04-09T16:46:01.918Z,110.14
2023-04-09T16:48:34.246Z,108.78
2023-04-09T16:51:06.480Z,110.29
2023-04-09T16:53:41.297Z,120.41
2023-04-09T16:56:13.923Z,119.92
2023-04-09T16:58:46.131Z,120.01
2023-04-09T17:01:18.440Z,118.24
2023-04-09T17:03:53.126Z,115.65
2023-04-09T17:06:25.364Z,111.31
2023-04-09T17:09:00.176Z,114.84
2023-04-09T17:11:32.754Z,118.19
2023-04-09T17:14:05.011Z,115.56
2023-04-09T17:16:38.311Z,113.57
2023-04-09T17:19:10.520Z,116.86
2023-04-09T17:21:43.014Z,117.24
2023-04-09T17:24:17.853Z,120.76
2023-04-09T17:26:50.082Z,121.16
2023-04-09T17:29:22.447Z,121.61
2023-04-09T17:31:55.051Z,126.36
2023-04-09T17:34:27.443Z,130.20
2023-04-09T17:37:00.266Z,126.28
2023-04-09T17:39:35.691Z,128.79
2023-04-09T17:42:08.030Z,129.47
2023-04-09T17:44:40.282Z,130.44
2023-04-09T17:47:12.579Z,128.57
2023-04-09T17:49:45.933Z,130.90
2023-04-09T17:52:18.278Z,130.04
2023-04-09T17:54:53.510Z,134.04
2023-04-09T17:57:25.793Z,140.39
2023-04-09T17:59:57.951Z,138.27
2023-04-09T18:02:30.330Z,137.55
2023-04-09T18:05:04.752Z,127.91
2023-04-09T18:07:37.106Z,137.40
2023-04-09T18:10:12.814Z,133.32
2023-04-09T18:12:44.999Z,137.44
2023-04-09T18:15:18.897Z,155.11
2023-04-09T18:17:51.677Z,221.51
2023-04-09T18:20:24.004Z,148.84
2023-04-09T18:22:56.212Z,147.32
2023-04-09T18:25:31.205Z,184.24
2023-04-09T18:28:03.436Z,203.36
2023-04-09T18:30:36.367Z,160.27
2023-04-09T18:33:08.888Z,150.27
2023-04-09T18:35:41.127Z,156.52
2023-04-09T18:38:13.330Z,176.79
2023-04-09T18:40:49.026Z,181.12
2023-04-09T18:43:21.364Z,185.21
2023-04-09T18:45:53.906Z,194.39
2023-04-09T18:48:26.198Z,209.56
2023-04-09T18:50:59.190Z,183.19
2023-04-09T18:53:31.573Z,161.43
2023-04-09T18:56:07.494Z,161.32
2023-04-09T18:58:39.714Z,162.38
2023-04-09T19:01:15.554Z,164.36
2023-04-09T19:03:48.057Z,176.74
2023-04-09T19:06:23.450Z,177.47
2023-04-09T19:08:58.377Z,189.07
2023-04-09T19:11:33.120Z,183.06
2023-04-09T19:14:05.353Z,190.72
2023-04-09T19:16:37.718Z,183.45
2023-04-09T19:19:10.020Z,173.84
2023-04-09T19:21:42.702Z,168.57
2023-04-09T19:24:15.001Z,168.36
2023-04-09T19:26:51.049Z,166.24
2023-04-09T19:29:23.369Z,180.24
2023-04-09T19:31:56.148Z,186.77
2023-04-09T19:34:28.476Z,196.19
2023-04-09T19:37:01.044Z,200.36
2023-04-09T19:39:33.411Z,192.80
2023-04-09T19:42:08.367Z,174.43
2023-04-09T19:44:40.825Z,166.28
2023-04-09T19:47:13.152Z,167.13
2023-04-09T19:49:45.737Z,162.99
2023-04-09T19:52:18.006Z,153.14
2023-04-09T19:54:50.327Z,146.41
2023-04-09T19:57:26.604Z,145.76
2023-04-09T19:59:58.844Z,139.28
2023-04-09T20:02:32.008Z,144.75
2023-04-09T20:05:04.591Z,151.31
2023-04-09T20:07:36.886Z,153.79
2023-04-09T20:10:10.630Z,155.60
2023-04-09T20:12:45.542Z,161.11
2023-04-09T20:15:20.142Z,166.61
2023-04-09T20:17:52.975Z,167.47
2023-04-09T20:20:25.254Z,174.13
2023-04-09T20:22:57.743Z,172.46
2023-04-09T20:25:34.970Z,167.41
2023-04-09T20:28:10.160Z,180.79
2023-04-09T20:30:42.996Z,217.63
2023-04-09T20:33:15.217Z,209.84
2023-04-09T20:35:48.351Z,179.98
2023-04-09T20:38:22.461Z,172.32
2023-04-09T20:40:54.760Z,176.66
2023-04-09T20:43:29.571Z,179.85
2023-04-09T20:46:01.836Z,183.59
2023-04-09T20:48:34.479Z,182.42
2023-04-09T20:51:11.874Z,183.52
2023-04-09T20:53:44.154Z,192.44
2023-04-09T20:56:17.094Z,197.89
2023-04-09T20:58:52.480Z,202.22
2023-04-09T21:01:27.382Z,203.36
2023-04-09T21:03:59.781Z,208.74
2023-04-09T21:06:32.125Z,209.34
2023-04-09T21:09:04.397Z,202.14
2023-04-09T21:11:36.640Z,201.08
2023-04-09T21:14:12.942Z,202.00
2023-04-09T21:16:45.261Z,205.72
2023-04-09T21:19:17.505Z,205.34
2023-04-09T21:21:49.795Z,212.32
2023-04-09T21:24:22.045Z,203.18
2023-04-09T21:26:54.248Z,202.23
2023-04-09T21:29:29.242Z,196.48
2023-04-09T21:32:01.441Z,193.63
2023-04-09T21:34:33.656Z,190.73
2023-04-09T21:37:07.134Z,191.65
2023-04-09T21:39:39.531Z,200.49
2023-04-09T21:42:11.731Z,198.29
2023-04-09T21:44:46.490Z,196.98
2023-04-09T21:47:18.767Z,197.61
2023-04-09T21:49:51.036Z,190.57
2023-04-09T21:52:23.402Z,189.26
2023-04-09T21:54:55.597Z,194.05
2023-04-09T21:57:27.857Z,186.44
2023-04-09T22:00:03.525Z,178.04
2023-04-09T22:02:38.853Z,179.86
2023-04-09T22:05:11.942Z,172.89
2023-04-09T22:07:46.484Z,177.51
2023-04-09T22:10:18.661Z,183.33
2023-04-09T22:12:50.963Z,181.18
2023-04-09T22:15:26.171Z,182.78
2023-04-09T22:17:58.698Z,181.96
2023-04-09T22:20:30.954Z,176.44
2023-04-09T22:23:03.395Z,177.26
2023-04-09T22:25:36.643Z,169.54
2023-04-09T22:28:09.037Z,164.66
2023-04-09T22:30:43.823Z,170.23
2023-04-09T22:33:16.063Z,171.09
2023-04-09T22:35:49.257Z,172.06
2023-04-09T22:38:21.751Z,165.43
2023-04-09T22:40:54.455Z,159.91
2023-04-09T22:43:26.761Z,165.19
2023-04-09T22:46:02.247Z,160.16
2023-04-09T22:48:40.739Z,154.91
2023-04-09T22:51:16.773Z,162.66
2023-04-09T22:53:49.781Z,158.27
2023-04-09T22:56:22.495Z,156.80
2023-04-09T22:58:54.967Z,160.79
2023-04-09T23:01:30.524Z,163.66
2023-04-09T23:04:02.784Z,159.78
2023-04-09T23:06:35.036Z,159.31
2023-04-09T23:09:07.437Z,166.59
2023-04-09T23:11:39.639Z,172.87
2023-04-09T23:14:11.829Z,177.40
2023-04-09T23:16:46.707Z,183.44
2023-04-09T23:19:18.994Z,181.05
2023-04-09T23:21:51.229Z,187.89
2023-04-09T23:24:23.426Z,197.94
2023-04-09T23:26:56.338Z,200.00
2023-04-09T23:29:28.560Z,198.51
2023-04-09T23:32:03.718Z,193.64
2023-04-09T23:34:36.024Z,199.91
2023-04-09T23:37:09.454Z,193.54
2023-04-09T23:39:41.777Z,186.86
2023-04-09T23:42:14.040Z,199.69
2023-04-09T23:44:46.896Z,197.14
2023-04-09T23:47:22.374Z,208.16
2023-04-09T23:49:54.741Z,216.18
2023-04-09T23:52:26.985Z,211.06
2023-04-09T23:55:00.060Z,212.18
2023-04-09T23:57:32.474Z,209.69
